Time;durP1;ratioP1;P1;durP2;ratioP2;P2;SDS_P1;SDS_P2;PMS_P1;PMS_P2;Temp;Humidity;BMP_temperature;BMP_pressure;BME280_temperature;BME280_humidity;BME280_pressure;Samples;Min_cycle;Max_cycle;Signal;HPM_P1;HPM_P2
2021/04/27 00:01:57;;;;;;;5.20;4.70;;;10.90;35.60;;;;;;5012050;28;20197;-69
2021/04/27 00:04:22;;;;;;;4.93;4.60;;;10.80;35.80;;;;;;5009163;28;20189;-70
2021/04/27 00:06:48;;;;;;;5.93;4.77;;;10.70;36.00;;;;;;5010754;28;20197;-70
2021/04/27 00:09:14;;;;;;;5.70;4.80;;;10.70;36.10;;;;;;5011474;28;20212;-70
2021/04/27 00:11:40;;;;;;;5.03;4.63;;;10.70;36.90;;;;;;5011740;28;20473;-71
2021/04/27 00:14:07;;;;;;;4.77;4.47;;;10.70;36.40;;;;;;5007800;28;20192;-68
2021/04/27 00:16:33;;;;;;;4.47;4.10;;;10.60;36.60;;;;;;5016376;28;20189;-70
2021/04/27 00:18:59;;;;;;;4.80;4.40;;;10.60;36.80;;;;;;5009248;28;20460;-68
2021/04/27 00:21:25;;;;;;;4.63;4.23;;;10.60;36.90;;;;;;5009457;28;20468;-69
2021/04/27 00:23:51;;;;;;;4.90;4.50;;;10.60;37.10;;;;;;5011907;28;20543;-69
2021/04/27 00:26:16;;;;;;;5.07;4.70;;;10.60;37.10;;;;;;5008190;28;20186;-69
2021/04/27 00:28:42;;;;;;;5.70;4.73;;;10.70;37.20;;;;;;5012502;28;20209;-70
2021/04/27 00:31:08;;;;;;;4.70;4.40;;;10.60;37.10;;;;;;5012648;28;20251;-70
2021/04/27 00:33:33;;;;;;;5.50;5.00;;;10.60;37.20;;;;;;5007735;28;20193;-69
2021/04/27 00:35:59;;;;;;;4.90;4.60;;;10.60;37.30;;;;;;5008571;28;20201;-70
2021/04/27 00:38:25;;;;;;;5.10;4.70;;;10.60;37.40;;;;;;5013891;28;20267;-70
2021/04/27 00:40:50;;;;;;;5.10;4.63;;;10.60;37.70;;;;;;5012989;28;20833;-70
2021/04/27 00:43:16;;;;;;;6.77;4.90;;;10.60;37.70;;;;;;5010053;28;20429;-70
2021/04/27 00:45:42;;;;;;;5.23;4.73;;;10.60;37.80;;;;;;5010277;28;20791;-70
2021/04/27 00:48:07;;;;;;;5.57;5.00;;;10.50;37.70;;;;;;5009036;28;20703;-70
2021/04/27 00:50:37;;;;;;;5.47;5.03;;;10.60;37.90;;;;;;5013969;28;20208;-70
2021/04/27 00:53:04;;;;;;;5.33;5.03;;;10.50;38.00;;;;;;5007341;28;20212;-70
2021/04/27 00:55:30;;;;;;;5.30;4.90;;;10.50;38.00;;;;;;5010503;28;20462;-69
2021/04/27 00:57:56;;;;;;;5.23;4.83;;;10.40;38.00;;;;;;5012184;28;20427;-69
2021/04/27 01:00:26;;;;;;;5.77;5.20;;;10.40;38.80;;;;;;5012404;28;21193;-69
2021/04/27 01:02:51;;;;;;;5.10;4.70;;;10.30;38.30;;;;;;5008123;28;20208;-69
2021/04/27 01:05:20;;;;;;;7.43;4.60;;;10.30;38.50;;;;;;5011465;28;20444;-70
2021/04/27 01:08:27;;;;;;;5.50;5.10;;;10.30;38.60;;;;;;5015942;28;20315;-69
2021/04/27 01:11:15;;;;;;;6.80;5.20;;;10.20;38.90;;;;;;5005279;28;20459;-69
2021/04/27 01:14:15;;;;;;;5.70;5.20;;;10.20;39.10;;;;;;5011506;28;20451;-71
2021/04/27 01:16:49;;;;;;;5.00;4.60;;;10.20;39.20;;;;;;4998936;28;20438;-71
2021/04/27 01:19:22;;;;;;;6.50;5.00;;;10.10;39.30;;;;;;5002874;28;20546;-69
2021/04/27 01:21:48;;;;;;;5.23;4.57;;;10.00;39.50;;;;;;5006284;28;20791;-70
2021/04/27 01:24:45;;;;;;;6.13;5.53;;;10.00;39.60;;;;;;5011291;28;20528;-69
2021/04/27 01:27:11;;;;;;;5.00;4.53;;;9.90;40.70;;;;;;5010309;28;20451;-71
2021/04/27 01:29:38;;;;;;;5.40;4.90;;;9.80;40.90;;;;;;5013911;28;20468;-70
2021/04/27 01:32:05;;;;;;;5.17;4.70;;;9.80;41.00;;;;;;5011879;28;20463;-69
2021/04/27 01:34:45;;;;;;;5.27;4.87;;;9.80;40.90;;;;;;5014304;28;20431;-68
2021/04/27 01:37:11;;;;;;;4.90;4.50;;;9.70;41.20;;;;;;5012439;28;20446;-68
2021/04/27 01:39:38;;;;;;;6.57;6.10;;;9.60;41.60;;;;;;5012677;28;20548;-70
2021/04/27 01:42:06;;;;;;;5.63;5.03;;;9.60;41.60;;;;;;5013161;28;20431;-70
2021/04/27 01:44:34;;;;;;;5.47;4.90;;;9.40;42.10;;;;;;5012552;28;20945;-68
2021/04/27 01:47:01;;;;;;;5.33;4.83;;;9.20;42.50;;;;;;5014403;28;20935;-70
2021/04/27 01:49:27;;;;;;;7.90;4.80;;;9.10;42.70;;;;;;5007919;28;21036;-71
2021/04/27 01:51:54;;;;;;;5.10;4.60;;;9.00;43.00;;;;;;5008061;28;20463;-69
2021/04/27 01:54:28;;;;;;;7.67;4.67;;;9.00;43.20;;;;;;5011022;28;20438;-68
2021/04/27 01:56:55;;;;;;;5.10;4.70;;;9.00;43.10;;;;;;5015418;28;20436;-67
2021/04/27 01:59:20;;;;;;;5.10;4.70;;;9.00;43.40;;;;;;5016336;28;20511;-68
2021/04/27 02:01:47;;;;;;;4.70;4.40;;;9.00;43.50;;;;;;5014938;28;20565;-69
2021/04/27 02:04:26;;;;;;;5.50;5.00;;;9.00;43.50;;;;;;5016932;28;20190;-69
2021/04/27 02:06:52;;;;;;;5.80;5.30;;;8.90;43.60;;;;;;5016267;28;20448;-69
2021/04/27 02:09:21;;;;;;;5.80;4.60;;;8.80;43.90;;;;;;5012649;28;20462;-70
2021/04/27 02:11:50;;;;;;;5.27;4.87;;;8.70;44.10;;;;;;5011212;28;20459;-70
2021/04/27 02:14:16;;;;;;;5.47;4.97;;;8.70;44.20;;;;;;5014718;28;20508;-70
2021/04/27 02:16:47;;;;;;;4.83;4.43;;;8.70;44.30;;;;;;5015756;28;20461;-69
2021/04/27 02:19:14;;;;;;;5.10;4.70;;;8.60;44.60;;;;;;5014160;28;20974;-69
2021/04/27 02:21:41;;;;;;;5.73;4.30;;;8.60;44.50;;;;;;5010964;28;20456;-69
2021/04/27 02:24:08;;;;;;;6.17;4.70;;;8.50;44.90;;;;;;5011366;28;20962;-68
2021/04/27 02:26:34;;;;;;;5.50;5.00;;;8.50;44.90;;;;;;5015536;28;20535;-69
2021/04/27 02:29:05;;;;;;;4.83;4.53;;;8.50;44.90;;;;;;5015097;28;20455;-71
2021/04/27 02:31:32;;;;;;;5.33;4.83;;;8.50;45.00;;;;;;5011713;28;20477;-70
2021/04/27 02:33:59;;;;;;;5.10;4.70;;;8.60;45.10;;;;;;5012157;28;20525;-70
2021/04/27 02:36:27;;;;;;;4.77;4.47;;;8.60;45.00;;;;;;5015925;28;20427;-68
2021/04/27 02:38:53;;;;;;;5.00;4.37;;;8.60;45.10;;;;;;5015039;28;20995;-70
2021/04/27 02:41:18;;;;;;;4.93;4.47;;;8.60;45.30;;;;;;5016956;28;20442;-71
2021/04/27 02:43:45;;;;;;;7.10;4.33;;;8.60;45.20;;;;;;5016090;28;20990;-68
2021/04/27 02:46:10;;;;;;;5.33;4.93;;;8.60;45.20;;;;;;5014723;28;20565;-70
2021/04/27 02:48:36;;;;;;;5.33;4.83;;;8.60;45.30;;;;;;5014325;28;20464;-69
2021/04/27 02:51:02;;;;;;;5.10;4.70;;;8.70;45.20;;;;;;5005774;28;20209;-71
2021/04/27 02:53:27;;;;;;;5.00;4.50;;;8.70;45.30;;;;;;5013736;28;20213;-71
2021/04/27 02:55:54;;;;;;;4.87;4.50;;;8.70;45.20;;;;;;5010299;28;20192;-71
2021/04/27 02:58:21;;;;;;;4.40;4.10;;;8.70;45.20;;;;;;5013085;28;20188;-69
2021/04/27 03:00:49;;;;;;;4.67;4.37;;;8.80;45.30;;;;;;5014004;28;20469;-68
2021/04/27 03:03:15;;;;;;;4.87;4.47;;;8.90;45.00;;;;;;5011792;28;20432;-68
2021/04/27 03:05:40;;;;;;;7.43;4.90;;;8.80;44.90;;;;;;5010093;28;20492;-69
2021/04/27 03:08:07;;;;;;;7.80;4.57;;;8.90;45.00;;;;;;5012482;28;20231;-68
2021/04/27 03:10:33;;;;;;;4.80;4.50;;;8.90;45.00;;;;;;5011618;28;20200;-67
2021/04/27 03:12:58;;;;;;;5.33;4.47;;;8.90;45.00;;;;;;5009596;28;20424;-71
2021/04/27 03:15:24;;;;;;;4.73;4.33;;;8.90;44.80;;;;;;5014973;28;20438;-68
2021/04/27 03:17:50;;;;;;;4.60;4.30;;;8.80;44.90;;;;;;5012551;28;20185;-68
2021/04/27 03:20:16;;;;;;;4.50;4.20;;;8.80;45.20;;;;;;5009923;28;20457;-69
2021/04/27 03:22:43;;;;;;;4.80;4.50;;;8.80;45.00;;;;;;5018327;28;20199;-69
2021/04/27 03:25:10;;;;;;;7.87;4.10;;;8.80;45.10;;;;;;5010458;28;20435;-70
2021/04/27 03:27:36;;;;;;;4.63;4.30;;;8.90;45.20;;;;;;5007790;28;20451;-71
2021/04/27 03:30:04;;;;;;;4.90;4.60;;;8.90;45.10;;;;;;5012164;28;20459;-71
2021/04/27 03:32:30;;;;;;;4.67;4.27;;;8.90;45.40;;;;;;5016492;28;20455;-70
2021/04/27 03:34:56;;;;;;;6.83;4.80;;;8.90;45.30;;;;;;5015483;28;20517;-70
2021/04/27 03:37:21;;;;;;;4.63;4.23;;;8.90;45.30;;;;;;5011068;28;20643;-71
2021/04/27 03:39:47;;;;;;;4.60;4.20;;;8.90;45.10;;;;;;5011665;28;20216;-69
2021/04/27 03:42:13;;;;;;;4.70;4.30;;;8.90;45.30;;;;;;5011442;28;20439;-69
2021/04/27 03:44:39;;;;;;;4.20;3.80;;;8.80;45.40;;;;;;5013580;28;20201;-67
2021/04/27 03:47:05;;;;;;;5.00;4.50;;;8.80;45.70;;;;;;5011741;28;20428;-68
2021/04/27 03:49:31;;;;;;;5.13;4.63;;;8.80;45.70;;;;;;5011234;28;20396;-68
2021/04/27 03:51:57;;;;;;;6.63;4.87;;;8.80;45.70;;;;;;5013785;28;20507;-68
2021/04/27 03:54:24;;;;;;;4.87;4.47;;;8.80;45.70;;;;;;5011169;28;20789;-69
2021/04/27 03:56:50;;;;;;;4.97;4.47;;;8.80;46.30;;;;;;5011880;28;20184;-69
2021/04/27 03:59:15;;;;;;;6.33;4.90;;;8.70;45.70;;;;;;5010592;28;20464;-69
2021/04/27 04:01:41;;;;;;;5.03;4.57;;;8.70;45.80;;;;;;5021945;28;20498;-67
2021/04/27 04:04:07;;;;;;;7.13;4.70;;;8.60;45.90;;;;;;5017746;28;20267;-70
2021/04/27 04:06:33;;;;;;;5.20;4.20;;;8.60;45.80;;;;;;5014396;28;20193;-70
2021/04/27 04:08:58;;;;;;;5.07;4.57;;;8.50;45.90;;;;;;5010741;28;20494;-69
2021/04/27 04:11:25;;;;;;;4.83;4.53;;;8.60;46.10;;;;;;5016372;28;20211;-69
2021/04/27 04:13:50;;;;;;;5.33;4.93;;;8.50;46.10;;;;;;5019673;28;20520;-69
2021/04/27 04:16:16;;;;;;;5.00;4.60;;;8.50;46.40;;;;;;5012020;28;20467;-69
2021/04/27 04:18:42;;;;;;;4.37;4.07;;;8.60;46.30;;;;;;5007031;28;20213;-70
2021/04/27 04:21:07;;;;;;;5.20;4.80;;;8.60;46.10;;;;;;5015025;28;20758;-69
2021/04/27 04:23:33;;;;;;;4.70;4.40;;;8.50;46.20;;;;;;5014813;28;20235;-70
2021/04/27 04:25:59;;;;;;;5.13;4.80;;;8.50;46.30;;;;;;5012308;28;20185;-69
2021/04/27 04:28:25;;;;;;;5.80;5.20;;;8.50;46.30;;;;;;5015337;28;20212;-69
2021/04/27 04:30:51;;;;;;;4.40;4.10;;;8.50;46.30;;;;;;5017634;28;20496;-69
2021/04/27 04:33:16;;;;;;;5.20;4.70;;;8.50;46.40;;;;;;5008429;28;20435;-70
2021/04/27 04:35:42;;;;;;;5.33;4.83;;;8.50;46.40;;;;;;5009133;28;20470;-70
2021/04/27 04:38:08;;;;;;;5.00;4.40;;;8.50;46.50;;;;;;5009537;28;20189;-71
2021/04/27 04:40:34;;;;;;;4.47;4.10;;;8.50;46.60;;;;;;5010104;28;20664;-68
2021/04/27 04:43:00;;;;;;;5.57;4.80;;;8.50;46.60;;;;;;5010704;28;20201;-70
2021/04/27 04:45:26;;;;;;;5.37;4.90;;;8.50;46.70;;;;;;5012616;28;20466;-70
2021/04/27 04:47:53;;;;;;;6.27;4.87;;;8.50;46.50;;;;;;5014179;28;20187;-69
2021/04/27 04:50:19;;;;;;;4.23;3.93;;;8.40;46.80;;;;;;5009526;28;20316;-69
2021/04/27 04:52:45;;;;;;;5.23;4.83;;;8.50;46.80;;;;;;5013312;28;20419;-69
2021/04/27 04:55:12;;;;;;;5.20;4.80;;;8.50;46.60;;;;;;5013506;28;20423;-70
2021/04/27 04:57:38;;;;;;;5.90;5.40;;;8.60;46.50;;;;;;5015697;28;20451;-69
2021/04/27 05:00:16;;;;;;;4.60;4.20;;;8.60;46.50;;;;;;5009386;28;20532;-69
2021/04/27 05:02:42;;;;;;;4.67;4.27;;;8.60;46.60;;;;;;5003333;28;20180;-69
2021/04/27 05:05:08;;;;;;;5.17;4.77;;;8.60;46.40;;;;;;5009516;28;20428;-68
2021/04/27 05:07:42;;;;;;;4.90;4.50;;;8.60;46.70;;;;;;5004956;28;20200;-70
2021/04/27 05:10:09;;;;;;;7.57;4.53;;;8.50;46.40;;;;;;5010842;28;20463;-70
2021/04/27 05:12:34;;;;;;;5.13;4.40;;;8.50;46.60;;;;;;5014841;28;20435;-69
2021/04/27 05:15:00;;;;;;;4.70;4.30;;;8.50;46.70;;;;;;5008387;28;20432;-70
2021/04/27 05:17:26;;;;;;;4.57;4.20;;;8.60;46.80;;;;;;5010151;28;20208;-69
2021/04/27 05:19:52;;;;;;;5.50;5.00;;;8.60;46.80;;;;;;5015113;28;20328;-69
2021/04/27 05:22:18;;;;;;;5.30;4.80;;;8.70;46.80;;;;;;5014163;28;20192;-68
2021/04/27 05:24:44;;;;;;;5.30;4.80;;;8.80;46.70;;;;;;5010223;28;20452;-70
2021/04/27 05:27:09;;;;;;;5.03;4.63;;;8.80;46.70;;;;;;5003889;28;20814;-70
2021/04/27 05:29:36;;;;;;;4.97;4.50;;;8.80;46.50;;;;;;5011521;28;20212;-69
2021/04/27 05:32:02;;;;;;;7.27;4.03;;;8.80;46.70;;;;;;5012700;28;20387;-70
2021/04/27 05:34:28;;;;;;;4.87;4.47;;;8.90;46.70;;;;;;5015541;28;20867;-69
2021/04/27 05:36:53;;;;;;;5.47;4.20;;;8.80;46.70;;;;;;5013559;28;20471;-69
2021/04/27 05:39:19;;;;;;;5.20;4.90;;;8.90;46.70;;;;;;5009529;28;20229;-70
2021/04/27 05:41:45;;;;;;;5.80;4.63;;;8.90;46.60;;;;;;5016685;28;20189;-69
2021/04/27 05:44:10;;;;;;;4.40;4.00;;;8.90;46.90;;;;;;5015595;28;20192;-70
2021/04/27 05:46:36;;;;;;;4.90;4.50;;;9.00;46.70;;;;;;5012799;28;20193;-71
2021/04/27 05:49:03;;;;;;;5.13;4.73;;;9.10;46.60;;;;;;5013794;28;20758;-70
2021/04/27 05:51:28;;;;;;;5.30;4.70;;;9.10;46.40;;;;;;5012164;28;20879;-69
2021/04/27 05:53:54;;;;;;;5.23;4.83;;;9.10;46.30;;;;;;5012604;28;20459;-70
2021/04/27 05:56:20;;;;;;;4.83;4.53;;;9.10;46.50;;;;;;5008946;28;20296;-69
2021/04/27 05:58:46;;;;;;;5.03;4.63;;;9.10;46.30;;;;;;5010127;28;20292;-68
2021/04/27 06:01:13;;;;;;;5.00;4.43;;;9.20;46.40;;;;;;5010199;28;20205;-69
2021/04/27 06:03:39;;;;;;;5.00;4.50;;;9.20;46.40;;;;;;5012610;28;20486;-69
2021/04/27 06:06:05;;;;;;;5.47;5.03;;;9.30;46.30;;;;;;5011654;28;20476;-69
2021/04/27 06:08:30;;;;;;;5.80;4.70;;;9.30;46.40;;;;;;5009235;28;20684;-69
2021/04/27 06:10:57;;;;;;;5.97;5.20;;;9.20;46.40;;;;;;5014269;28;20454;-70
2021/04/27 06:13:22;;;;;;;7.43;4.87;;;9.10;46.30;;;;;;5015228;28;20223;-69
2021/04/27 06:15:48;;;;;;;6.67;4.80;;;9.20;46.60;;;;;;5015548;28;20462;-68
2021/04/27 06:18:14;;;;;;;5.00;4.60;;;9.30;46.60;;;;;;5020823;28;20198;-70
2021/04/27 06:20:40;;;;;;;5.60;5.20;;;9.20;46.60;;;;;;5017628;28;20185;-69
2021/04/27 06:23:05;;;;;;;4.47;4.17;;;9.20;46.70;;;;;;5008107;28;20181;-70
2021/04/27 06:25:31;;;;;;;6.80;4.90;;;9.20;46.50;;;;;;5007982;28;20550;-70
2021/04/27 06:27:56;;;;;;;5.40;4.90;;;9.30;46.40;;;;;;5011238;28;20192;-69
2021/04/27 06:30:23;;;;;;;5.20;4.83;;;9.30;46.50;;;;;;5007758;28;20296;-71
2021/04/27 06:32:52;;;;;;;5.27;4.87;;;9.40;46.40;;;;;;5007434;28;20193;-68
2021/04/27 06:35:19;;;;;;;5.87;5.00;;;9.30;46.50;;;;;;5003549;28;20479;-67
2021/04/27 06:37:45;;;;;;;6.10;5.50;;;9.30;46.70;;;;;;5013382;28;20428;-68
2021/04/27 06:40:11;;;;;;;6.10;5.60;;;9.50;46.70;;;;;;5012373;28;20792;-71
2021/04/27 06:42:37;;;;;;;6.17;5.67;;;9.50;46.30;;;;;;5009829;28;20201;-69
2021/04/27 06:45:04;;;;;;;5.90;5.40;;;9.50;46.30;;;;;;5010878;28;20448;-68
2021/04/27 06:47:29;;;;;;;6.13;5.63;;;9.60;46.20;;;;;;5013435;28;20189;-68
2021/04/27 06:49:57;;;;;;;6.57;5.00;;;9.60;46.20;;;;;;5016813;28;20454;-68
2021/04/27 06:52:24;;;;;;;6.60;5.80;;;9.60;46.20;;;;;;5011598;28;20309;-67
2021/04/27 06:54:49;;;;;;;6.03;5.53;;;9.70;46.10;;;;;;5013297;28;20473;-67
2021/04/27 06:57:15;;;;;;;5.70;5.20;;;9.70;46.20;;;;;;5008435;28;20530;-69
2021/04/27 06:59:41;;;;;;;5.60;5.00;;;9.90;46.20;;;;;;5011518;28;20430;-71
2021/04/27 07:02:08;;;;;;;5.37;4.97;;;10.00;45.30;;;;;;5007195;28;20295;-72
2021/04/27 07:04:35;;;;;;;5.77;5.27;;;10.10;45.00;;;;;;5013757;28;20199;-68
2021/04/27 07:07:01;;;;;;;5.60;5.23;;;10.20;45.00;;;;;;5018256;28;20526;-70
2021/04/27 07:09:27;;;;;;;5.97;5.23;;;10.20;44.80;;;;;;5010907;28;20700;-70
2021/04/27 07:11:53;;;;;;;6.20;5.60;;;10.20;44.60;;;;;;5018088;28;20562;-71
2021/04/27 07:14:18;;;;;;;5.50;5.10;;;10.30;44.60;;;;;;5013793;28;20180;-68
2021/04/27 07:16:44;;;;;;;5.77;5.27;;;10.40;44.60;;;;;;5008601;28;20181;-70
2021/04/27 07:19:09;;;;;;;5.83;5.43;;;10.40;44.50;;;;;;5016396;28;20221;-70
2021/04/27 07:21:37;;;;;;;6.27;5.70;;;10.40;44.60;;;;;;5009415;28;20168;-70
2021/04/27 07:24:03;;;;;;;5.97;5.50;;;10.50;44.60;;;;;;5013580;28;20874;-70
2021/04/27 07:26:29;;;;;;;5.97;5.30;;;10.50;44.40;;;;;;5010753;28;20454;-69
2021/04/27 07:28:54;;;;;;;6.70;6.20;;;10.50;44.20;;;;;;5014298;28;20459;-70
2021/04/27 07:31:20;;;;;;;8.50;5.83;;;10.70;44.10;;;;;;5007539;28;20291;-70
2021/04/27 07:33:46;;;;;;;6.37;5.67;;;10.90;44.00;;;;;;5008726;28;20268;-69
2021/04/27 07:36:12;;;;;;;7.83;6.03;;;11.00;43.90;;;;;;5013027;28;20275;-69
2021/04/27 07:38:38;;;;;;;6.20;5.80;;;11.00;43.80;;;;;;5007804;28;21251;-70
2021/04/27 07:41:03;;;;;;;6.00;5.40;;;11.00;44.10;;;;;;5009915;28;20427;-69
2021/04/27 07:43:29;;;;;;;6.33;5.73;;;11.10;44.00;;;;;;5005907;28;20189;-71
2021/04/27 07:45:55;;;;;;;7.90;5.97;;;11.40;43.70;;;;;;5007043;28;20189;-69
2021/04/27 07:48:20;;;;;;;6.70;6.10;;;11.40;43.40;;;;;;5006590;28;20184;-68
2021/04/27 07:50:46;;;;;;;6.17;5.70;;;11.40;43.30;;;;;;5010023;28;20823;-70
2021/04/27 07:53:12;;;;;;;7.70;6.20;;;11.50;43.20;;;;;;5007231;28;20186;-69
2021/04/27 07:55:38;;;;;;;8.93;4.90;;;11.60;43.00;;;;;;5006691;28;20193;-69
2021/04/27 07:58:04;;;;;;;5.57;5.10;;;11.60;43.00;;;;;;5011116;28;20439;-70
2021/04/27 08:00:30;;;;;;;6.17;5.57;;;11.60;43.00;;;;;;5013726;28;20216;-69
2021/04/27 08:02:55;;;;;;;7.50;6.70;;;11.70;42.80;;;;;;5012164;28;20478;-70
2021/04/27 08:05:22;;;;;;;6.30;5.90;;;11.80;43.00;;;;;;5008031;28;20967;-70
2021/04/27 08:07:48;;;;;;;6.00;5.50;;;11.90;42.90;;;;;;5008935;28;20269;-69
2021/04/27 08:10:15;;;;;;;7.20;6.43;;;11.90;43.00;;;;;;5016015;28;20459;-69
2021/04/27 08:12:43;;;;;;;6.30;5.90;;;12.10;43.00;;;;;;5012052;28;20435;-68
2021/04/27 08:15:11;;;;;;;6.37;5.80;;;12.20;42.70;;;;;;5013387;28;20716;-68
2021/04/27 08:17:37;;;;;;;8.33;7.17;;;12.30;42.40;;;;;;5005644;28;20452;-68
2021/04/27 08:20:05;;;;;;;8.67;7.00;;;12.40;42.60;;;;;;5007230;28;20949;-69
2021/04/27 08:22:31;;;;;;;7.17;6.00;;;12.40;42.60;;;;;;5012254;28;20428;-71
2021/04/27 08:24:57;;;;;;;6.70;6.20;;;12.50;42.60;;;;;;5010891;28;20420;-68
2021/04/27 08:27:23;;;;;;;11.67;6.33;;;12.70;42.30;;;;;;5016316;28;20874;-70
2021/04/27 08:29:49;;;;;;;7.63;6.27;;;12.90;42.00;;;;;;5011274;28;20204;-68
2021/04/27 08:32:15;;;;;;;7.17;6.57;;;12.90;41.70;;;;;;5011936;28;20447;-70
2021/04/27 08:34:40;;;;;;;6.63;6.10;;;13.10;41.80;;;;;;5013830;28;20192;-71
2021/04/27 08:37:06;;;;;;;7.23;6.63;;;13.20;41.60;;;;;;5010667;28;20216;-69
2021/04/27 08:39:32;;;;;;;7.17;6.50;;;13.30;41.40;;;;;;5009561;28;20197;-69
2021/04/27 08:41:58;;;;;;;6.70;6.10;;;13.20;41.30;;;;;;5018083;28;20199;-69
2021/04/27 08:44:24;;;;;;;7.23;6.53;;;13.50;41.40;;;;;;5007181;28;20415;-69
2021/04/27 08:46:50;;;;;;;7.10;6.53;;;13.70;41.10;;;;;;5014459;28;21007;-68
2021/04/27 08:49:16;;;;;;;11.10;6.43;;;13.90;41.00;;;;;;5015865;28;20244;-68
2021/04/27 08:51:42;;;;;;;6.10;5.70;;;14.10;40.90;;;;;;5015330;28;20454;-68
2021/04/27 08:54:08;;;;;;;6.93;6.33;;;14.20;40.80;;;;;;5011847;28;20275;-68
2021/04/27 08:56:34;;;;;;;6.67;6.13;;;14.40;40.40;;;;;;5016467;28;20426;-68
2021/04/27 08:59:00;;;;;;;7.43;6.83;;;14.60;40.30;;;;;;5013050;28;20448;-68
2021/04/27 09:01:26;;;;;;;14.60;7.20;;;14.70;40.10;;;;;;5014676;28;20571;-69
2021/04/27 09:03:54;;;;;;;7.17;6.67;;;14.80;39.90;;;;;;5019376;28;21045;-69
2021/04/27 09:06:23;;;;;;;8.07;7.07;;;14.90;39.50;;;;;;5020693;28;20502;-70
2021/04/27 09:08:50;;;;;;;8.93;6.70;;;15.10;39.40;;;;;;5017969;28;20547;-69
2021/04/27 09:11:37;;;;;;;10.63;7.03;;;15.10;39.30;;;;;;5018574;28;20469;-70
2021/04/27 09:14:18;;;;;;;7.27;6.47;;;15.40;39.30;;;;;;5019373;28;20446;-70
2021/04/27 09:16:55;;;;;;;7.17;6.60;;;15.50;38.90;;;;;;5013826;28;20505;-71
2021/04/27 09:19:46;;;;;;;7.30;6.70;;;15.60;39.60;;;;;;5013337;28;20538;-69
2021/04/27 09:22:19;;;;;;;9.50;7.43;;;15.80;39.00;;;;;;5011614;28;20924;-68
2021/04/27 09:24:48;;;;;;;6.43;5.93;;;15.80;38.50;;;;;;5016343;28;20427;-70
2021/04/27 09:27:34;;;;;;;9.37;7.10;;;15.80;38.10;;;;;;5014957;28;20433;-69
2021/04/27 09:30:27;;;;;;;9.43;7.00;;;15.90;38.80;;;;;;5022301;28;20435;-70
2021/04/27 09:32:58;;;;;;;7.83;7.23;;;16.00;38.10;;;;;;5008265;28;20518;-70
2021/04/27 09:35:30;;;;;;;7.10;6.40;;;16.10;38.00;;;;;;5011940;28;20423;-68
2021/04/27 09:38:08;;;;;;;8.03;6.97;;;16.30;38.10;;;;;;5014084;28;20490;-69
2021/04/27 09:40:48;;;;;;;8.80;8.00;;;16.50;38.30;;;;;;5014672;28;20432;-70
2021/04/27 09:43:16;;;;;;;8.37;7.43;;;16.50;37.20;;;;;;5026421;28;20479;-69
2021/04/27 09:45:44;;;;;;;8.70;6.67;;;16.70;37.60;;;;;;5025944;28;20427;-70
2021/04/27 09:48:11;;;;;;;8.20;7.07;;;17.00;37.60;;;;;;5019829;28;20426;-70
2021/04/27 09:50:38;;;;;;;8.43;7.73;;;17.40;37.10;;;;;;5009280;28;20460;-71
2021/04/27 09:53:04;;;;;;;7.80;7.00;;;17.90;37.50;;;;;;5007051;28;20780;-70
2021/04/27 09:55:31;;;;;;;7.50;6.90;;;18.60;36.70;;;;;;5014041;28;20423;-72
2021/04/27 09:57:58;;;;;;;11.83;8.60;;;19.10;35.70;;;;;;5014312;28;20451;-69
2021/04/27 10:00:32;;;;;;;8.30;7.50;;;19.60;35.10;;;;;;5019402;28;20551;-71
2021/04/27 10:03:04;;;;;;;7.73;6.93;;;19.80;34.30;;;;;;5011288;28;20415;-70
2021/04/27 10:05:30;;;;;;;7.40;6.67;;;20.10;34.00;;;;;;5010990;28;20436;-70
2021/04/27 10:07:58;;;;;;;8.73;7.60;;;20.60;34.60;;;;;;5008997;28;20444;-72
2021/04/27 10:10:25;;;;;;;8.00;7.20;;;20.90;33.60;;;;;;5011581;28;20499;-71
2021/04/27 10:12:52;;;;;;;8.17;7.57;;;21.30;33.20;;;;;;5009770;28;20440;-73
2021/04/27 10:15:18;;;;;;;8.77;8.07;;;21.70;33.00;;;;;;5007567;28;20436;-69
2021/04/27 10:17:44;;;;;;;9.00;8.10;;;21.90;32.40;;;;;;5013695;28;20527;-68
2021/04/27 10:20:13;;;;;;;8.57;7.83;;;22.10;32.10;;;;;;5011646;28;20450;-70
2021/04/27 10:22:41;;;;;;;7.97;7.17;;;22.70;32.30;;;;;;5014426;28;20908;-71
2021/04/27 10:25:11;;;;;;;8.20;7.40;;;23.40;32.00;;;;;;5016648;28;20438;-70
2021/04/27 10:27:36;;;;;;;10.80;7.70;;;23.20;31.10;;;;;;5012828;28;20436;-71
2021/04/27 10:30:17;;;;;;;18.97;8.27;;;23.00;31.40;;;;;;5010872;28;20475;-70
2021/04/27 10:32:46;;;;;;;10.73;8.00;;;22.90;31.00;;;;;;5004938;28;20173;-69
2021/04/27 10:35:13;;;;;;;8.77;8.07;;;22.40;31.10;;;;;;5009557;28;20938;-71
2021/04/27 10:38:01;;;;;;;12.83;8.43;;;22.00;31.40;;;;;;5015621;28;20960;-68
2021/04/27 10:40:49;;;;;;;8.90;7.90;;;21.60;31.50;;;;;;5014818;28;20952;-72
2021/04/27 10:43:26;;;;;;;10.57;8.97;;;21.30;32.10;;;;;;5010992;28;20425;-68
2021/04/27 10:46:18;;;;;;;9.43;7.50;;;21.60;32.20;;;;;;5011897;28;20435;-69
2021/04/27 10:48:45;;;;;;;8.47;7.60;;;22.40;32.00;;;;;;5011103;28;20459;-70
2021/04/27 10:51:21;;;;;;;9.70;7.97;;;24.20;31.70;;;;;;5010435;28;20466;-70
2021/04/27 10:54:15;;;;;;;9.10;8.30;;;26.60;29.80;;;;;;5014866;28;20426;-72
2021/04/27 10:56:52;;;;;;;9.70;8.17;;;28.40;28.30;;;;;;5011572;28;20515;-71
2021/04/27 10:59:23;;;;;;;9.47;7.33;;;29.70;27.00;;;;;;5018074;28;20488;-73
2021/04/27 11:02:10;;;;;;;8.17;7.37;;;30.90;26.60;;;;;;5012336;28;20452;-74
2021/04/27 11:04:47;;;;;;;8.93;7.70;;;32.20;25.40;;;;;;5012247;28;20432;-72
2021/04/27 11:07:16;;;;;;;8.70;7.90;;;33.10;25.20;;;;;;5007158;28;20434;-71
2021/04/27 11:10:02;;;;;;;9.40;8.70;;;34.60;24.10;;;;;;5017490;28;20447;-70
2021/04/27 11:12:40;;;;;;;8.30;7.47;;;33.20;22.90;;;;;;5020989;28;20455;-69
2021/04/27 11:15:09;;;;;;;8.07;7.37;;;33.80;22.90;;;;;;5008997;28;21013;-70
2021/04/27 11:17:35;;;;;;;7.30;6.70;;;34.20;22.30;;;;;;5007617;28;20489;-71
2021/04/27 11:20:04;;;;;;;8.33;7.73;;;34.30;21.60;;;;;;5014201;28;20481;-70
2021/04/27 11:22:33;;;;;;;8.03;7.43;;;36.00;21.70;;;;;;5008241;28;20460;-71
2021/04/27 11:25:02;;;;;;;7.83;7.17;;;38.00;21.10;;;;;;5011070;28;20569;-72
2021/04/27 11:27:37;;;;;;;7.80;7.20;;;39.80;20.60;;;;;;5010786;28;20417;-70
2021/04/27 11:30:08;;;;;;;8.83;8.17;;;41.40;19.70;;;;;;5014501;28;20571;-70
2021/04/27 11:32:39;;;;;;;8.90;8.20;;;42.70;19.50;;;;;;5008713;28;20490;-69
2021/04/27 11:35:19;;;;;;;9.67;8.03;;;43.20;19.10;;;;;;5010234;28;20462;-70
2021/04/27 11:37:50;;;;;;;9.47;8.10;;;43.10;18.90;;;;;;5010015;28;20432;-72
2021/04/27 11:40:29;;;;;;;8.90;8.13;;;43.60;18.40;;;;;;5013055;28;20455;-72
2021/04/27 11:43:10;;;;;;;8.97;8.30;;;44.50;18.20;;;;;;5009855;28;20535;-70
2021/04/27 11:45:44;;;;;;;8.90;8.00;;;45.10;17.80;;;;;;5008111;28;20458;-70
2021/04/27 11:48:12;;;;;;;9.07;8.37;;;43.90;17.50;;;;;;4996320;28;20442;-69
2021/04/27 11:50:39;;;;;;;9.43;8.60;;;41.30;18.30;;;;;;5005156;28;20448;-70
2021/04/27 11:53:07;;;;;;;8.80;8.13;;;38.10;18.30;;;;;;5004246;28;20446;-69
2021/04/27 11:55:39;;;;;;;8.97;8.27;;;36.80;19.20;;;;;;5005520;28;20444;-69
2021/04/27 11:58:22;;;;;;;9.00;8.30;;;35.50;19.50;;;;;;5005875;28;20507;-71
2021/04/27 12:01:08;;;;;;;9.37;8.47;;;33.10;20.40;;;;;;5010882;28;20466;-71
2021/04/27 12:03:38;;;;;;;9.00;8.20;;;31.60;21.20;;;;;;5014306;28;21193;-70
2021/04/27 12:06:06;;;;;;;9.23;8.40;;;31.30;22.20;;;;;;5000186;28;20415;-71
2021/04/27 12:08:39;;;;;;;9.03;8.23;;;32.30;21.70;;;;;;5011463;28;20521;-72
2021/04/27 12:11:26;;;;;;;9.77;8.87;;;31.50;21.70;;;;;;5009005;28;20520;-71
2021/04/27 12:13:52;;;;;;;9.80;9.00;;;29.90;22.40;;;;;;5007457;28;20430;-72
2021/04/27 12:16:26;;;;;;;13.80;9.87;;;28.30;23.30;;;;;;4999527;28;20547;-71
2021/04/27 12:19:08;;;;;;;13.27;9.30;;;27.30;23.80;;;;;;5005797;28;20240;-70
2021/04/27 12:21:53;;;;;;;11.77;9.50;;;27.60;24.70;;;;;;5007919;28;20462;-68
2021/04/27 12:24:20;;;;;;;9.90;8.00;;;28.40;24.70;;;;;;5005315;28;20425;-70
2021/04/27 12:27:09;;;;;;;10.83;7.93;;;30.10;23.70;;;;;;5009965;28;20444;-69
2021/04/27 12:29:44;;;;;;;8.83;8.03;;;30.00;23.40;;;;;;5004740;28;20470;-72
2021/04/27 12:32:11;;;;;;;8.47;7.70;;;29.10;23.30;;;;;;5003487;28;20455;-71
2021/04/27 12:34:53;;;;;;;9.90;8.90;;;27.10;23.80;;;;;;5006067;28;20435;-70
2021/04/27 12:37:18;;;;;;;9.90;9.00;;;25.60;24.70;;;;;;5003753;28;20467;-71
2021/04/27 12:39:44;;;;;;;9.53;8.53;;;24.60;26.20;;;;;;5005402;28;20997;-71
2021/04/27 12:42:19;;;;;;;12.40;9.00;;;24.20;26.30;;;;;;5008928;28;20236;-70
2021/04/27 12:44:56;;;;;;;11.30;9.20;;;24.00;26.70;;;;;;5010854;28;20199;-69
2021/04/27 12:47:30;;;;;;;10.60;8.90;;;23.70;26.60;;;;;;5007633;28;20451;-70
2021/04/27 12:50:10;;;;;;;9.73;8.93;;;23.50;27.00;;;;;;5006053;28;20449;-71
2021/04/27 12:52:50;;;;;;;10.27;9.27;;;23.00;26.70;;;;;;5004425;28;20476;-70
2021/04/27 12:55:26;;;;;;;9.60;8.73;;;23.20;27.40;;;;;;5017548;28;20442;-71
2021/04/27 12:58:05;;;;;;;10.50;9.50;;;23.80;27.10;;;;;;5007014;28;20489;-71
2021/04/27 13:00:31;;;;;;;9.53;8.63;;;23.70;26.40;;;;;;5009376;28;20965;-72